sensor_id;sensor_type;location;lat;lon;timestamp;temperature;humidity
20546;DHT22;10431;50.228;9.112;2023-08-08T00:02:23;19.30;99.90
20546;DHT22;10431;50.228;9.112;2023-08-08T00:04:49;19.30;99.90
20546;DHT22;10431;50.228;9.112;2023-08-08T00:07:16;19.30;99.90
20546;DHT22;10431;50.228;9.112;2023-08-08T00:09:42;19.30;99.90
20546;DHT22;10431;50.228;9.112;2023-08-08T00:12:09;19.30;99.90
20546;DHT22;10431;50.228;9.112;2023-08-08T00:14:38;19.30;99.90
20546;DHT22;10431;50.228;9.112;2023-08-08T00:17:05;19.30;99.90
20546;DHT22;10431;50.228;9.112;2023-08-08T00:19:31;19.30;99.90
20546;DHT22;10431;50.228;9.112;2023-08-08T00:21:57;19.30;99.90
20546;DHT22;10431;50.228;9.112;2023-08-08T00:24:23;19.30;99.90
20546;DHT22;10431;50.228;9.112;2023-08-08T00:26:49;19.30;99.90
20546;DHT22;10431;50.228;9.112;2023-08-08T00:29:16;19.30;99.90
20546;DHT22;10431;50.228;9.112;2023-08-08T00:31:42;19.30;99.90
20546;DHT22;10431;50.228;9.112;2023-08-08T00:34:08;19.30;99.90
20546;DHT22;10431;50.228;9.112;2023-08-08T00:36:34;19.30;99.90
20546;DHT22;10431;50.228;9.112;2023-08-08T00:39:00;19.20;99.90
20546;DHT22;10431;50.228;9.112;2023-08-08T00:41:27;19.20;99.90
20546;DHT22;10431;50.228;9.112;2023-08-08T00:43:54;19.30;99.90
20546;DHT22;10431;50.228;9.112;2023-08-08T00:46:21;19.30;99.90
20546;DHT22;10431;50.228;9.112;2023-08-08T00:48:48;19.30;99.90
20546;DHT22;10431;50.228;9.112;2023-08-08T00:51:14;19.30;99.90
20546;DHT22;10431;50.228;9.112;2023-08-08T00:53:40;19.30;99.90
20546;DHT22;10431;50.228;9.112;2023-08-08T00:56:07;19.30;99.90
20546;DHT22;10431;50.228;9.112;2023-08-08T00:58:33;19.30;99.90
20546;DHT22;10431;50.228;9.112;2023-08-08T01:00:59;19.30;99.90
20546;DHT22;10431;50.228;9.112;2023-08-08T01:03:26;19.30;99.90
20546;DHT22;10431;50.228;9.112;2023-08-08T01:11:44;19.20;99.90
20546;DHT22;10431;50.228;9.112;2023-08-08T01:14:15;19.20;99.90
20546;DHT22;10431;50.228;9.112;2023-08-08T01:16:42;19.20;99.90
20546;DHT22;10431;50.228;9.112;2023-08-08T01:19:13;19.20;99.90
20546;DHT22;10431;50.228;9.112;2023-08-08T01:21:43;19.20;99.90
20546;DHT22;10431;50.228;9.112;2023-08-08T01:24:23;19.20;99.90
20546;DHT22;10431;50.228;9.112;2023-08-08T01:26:52;19.20;99.90
20546;DHT22;10431;50.228;9.112;2023-08-08T01:29:20;19.20;99.90
20546;DHT22;10431;50.228;9.112;2023-08-08T01:31:46;19.20;99.90
20546;DHT22;10431;50.228;9.112;2023-08-08T01:34:13;19.20;99.90
20546;DHT22;10431;50.228;9.112;2023-08-08T01:37:05;19.20;99.90
20546;DHT22;10431;50.228;9.112;2023-08-08T01:39:33;19.20;99.90
20546;DHT22;10431;50.228;9.112;2023-08-08T01:42:00;19.20;99.90
20546;DHT22;10431;50.228;9.112;2023-08-08T01:44:28;19.20;99.90
20546;DHT22;10431;50.228;9.112;2023-08-08T01:46:55;19.20;99.90
20546;DHT22;10431;50.228;9.112;2023-08-08T01:49:22;19.20;99.90
20546;DHT22;10431;50.228;9.112;2023-08-08T01:51:49;19.20;99.90
20546;DHT22;10431;50.228;9.112;2023-08-08T01:54:16;19.20;99.90
20546;DHT22;10431;50.228;9.112;2023-08-08T01:56:42;19.20;99.90
20546;DHT22;10431;50.228;9.112;2023-08-08T01:59:09;19.20;99.90
20546;DHT22;10431;50.228;9.112;2023-08-08T02:01:35;19.20;99.90
20546;DHT22;10431;50.228;9.112;2023-08-08T02:04:02;19.20;99.90
20546;DHT22;10431;50.228;9.112;2023-08-08T02:06:28;19.20;99.90
20546;DHT22;10431;50.228;9.112;2023-08-08T02:08:55;19.20;99.90
20546;DHT22;10431;50.228;9.112;2023-08-08T02:11:21;19.20;99.90
20546;DHT22;10431;50.228;9.112;2023-08-08T02:13:49;19.20;99.90
20546;DHT22;10431;50.228;9.112;2023-08-08T02:16:15;19.20;99.90
20546;DHT22;10431;50.228;9.112;2023-08-08T02:18:41;19.20;99.90
20546;DHT22;10431;50.228;9.112;2023-08-08T02:21:08;19.20;99.90
20546;DHT22;10431;50.228;9.112;2023-08-08T02:23:34;19.20;99.90
20546;DHT22;10431;50.228;9.112;2023-08-08T02:26:01;19.20;99.90
20546;DHT22;10431;50.228;9.112;2023-08-08T02:28:27;19.20;99.90
20546;DHT22;10431;50.228;9.112;2023-08-08T02:30:54;19.20;99.90
20546;DHT22;10431;50.228;9.112;2023-08-08T02:33:21;19.20;99.90
20546;DHT22;10431;50.228;9.112;2023-08-08T02:35:47;19.20;99.90
20546;DHT22;10431;50.228;9.112;2023-08-08T02:38:13;19.20;99.90
20546;DHT22;10431;50.228;9.112;2023-08-08T02:40:40;19.20;99.90
20546;DHT22;10431;50.228;9.112;2023-08-08T02:43:07;19.20;99.90
20546;DHT22;10431;50.228;9.112;2023-08-08T02:45:35;19.20;99.90
20546;DHT22;10431;50.228;9.112;2023-08-08T02:48:01;19.20;99.90
20546;DHT22;10431;50.228;9.112;2023-08-08T02:50:28;19.10;99.90
20546;DHT22;10431;50.228;9.112;2023-08-08T02:52:54;19.20;99.90
20546;DHT22;10431;50.228;9.112;2023-08-08T02:55:24;19.20;99.90
20546;DHT22;10431;50.228;9.112;2023-08-08T02:57:51;19.20;99.90
20546;DHT22;10431;50.228;9.112;2023-08-08T03:00:17;19.20;99.90
20546;DHT22;10431;50.228;9.112;2023-08-08T03:02:48;19.20;99.90
20546;DHT22;10431;50.228;9.112;2023-08-08T03:05:15;19.10;99.90
20546;DHT22;10431;50.228;9.112;2023-08-08T03:07:41;19.10;99.90
20546;DHT22;10431;50.228;9.112;2023-08-08T03:10:08;19.20;99.90
20546;DHT22;10431;50.228;9.112;2023-08-08T03:12:35;19.20;99.90
20546;DHT22;10431;50.228;9.112;2023-08-08T03:15:04;19.10;99.90
20546;DHT22;10431;50.228;9.112;2023-08-08T03:17:30;19.10;99.90
20546;DHT22;10431;50.228;9.112;2023-08-08T03:19:57;19.10;99.90
20546;DHT22;10431;50.228;9.112;2023-08-08T03:22:25;19.10;99.90
20546;DHT22;10431;50.228;9.112;2023-08-08T03:24:51;19.20;99.90
20546;DHT22;10431;50.228;9.112;2023-08-08T03:27:17;19.10;99.90
20546;DHT22;10431;50.228;9.112;2023-08-08T03:29:46;19.10;99.90
20546;DHT22;10431;50.228;9.112;2023-08-08T03:32:12;19.10;99.90
20546;DHT22;10431;50.228;9.112;2023-08-08T03:34:38;19.10;99.90
20546;DHT22;10431;50.228;9.112;2023-08-08T03:37:05;19.10;99.90
20546;DHT22;10431;50.228;9.112;2023-08-08T03:39:31;19.10;99.90
20546;DHT22;10431;50.228;9.112;2023-08-08T03:41:57;19.10;99.90
20546;DHT22;10431;50.228;9.112;2023-08-08T03:44:24;19.10;99.90
20546;DHT22;10431;50.228;9.112;2023-08-08T03:46:50;19.10;99.90
20546;DHT22;10431;50.228;9.112;2023-08-08T03:49:17;19.10;99.90
20546;DHT22;10431;50.228;9.112;2023-08-08T03:51:43;19.10;99.90
20546;DHT22;10431;50.228;9.112;2023-08-08T03:54:10;19.10;99.90
20546;DHT22;10431;50.228;9.112;2023-08-08T03:56:36;19.10;99.90
20546;DHT22;10431;50.228;9.112;2023-08-08T03:59:02;19.10;99.90
20546;DHT22;10431;50.228;9.112;2023-08-08T04:01:28;19.10;99.90
20546;DHT22;10431;50.228;9.112;2023-08-08T04:03:55;19.10;99.90
20546;DHT22;10431;50.228;9.112;2023-08-08T04:06:22;19.10;99.90
20546;DHT22;10431;50.228;9.112;2023-08-08T04:08:48;19.10;99.90
20546;DHT22;10431;50.228;9.112;2023-08-08T04:11:14;19.10;99.90
20546;DHT22;10431;50.228;9.112;2023-08-08T04:13:40;19.10;99.90
20546;DHT22;10431;50.228;9.112;2023-08-08T04:16:07;19.10;99.90
20546;DHT22;10431;50.228;9.112;2023-08-08T04:18:33;19.10;99.90
20546;DHT22;10431;50.228;9.112;2023-08-08T04:20:59;19.10;99.90
20546;DHT22;10431;50.228;9.112;2023-08-08T04:23:25;19.10;99.90
20546;DHT22;10431;50.228;9.112;2023-08-08T04:25:52;19.10;99.90
20546;DHT22;10431;50.228;9.112;2023-08-08T04:28:19;19.10;99.90
20546;DHT22;10431;50.228;9.112;2023-08-08T04:30:45;19.10;99.90
20546;DHT22;10431;50.228;9.112;2023-08-08T04:33:11;19.10;99.90
20546;DHT22;10431;50.228;9.112;2023-08-08T04:35:37;19.10;99.90
20546;DHT22;10431;50.228;9.112;2023-08-08T04:38:04;19.10;99.90
20546;DHT22;10431;50.228;9.112;2023-08-08T04:40:30;19.10;99.90
20546;DHT22;10431;50.228;9.112;2023-08-08T04:42:56;19.00;99.90
20546;DHT22;10431;50.228;9.112;2023-08-08T04:45:22;19.10;99.90
20546;DHT22;10431;50.228;9.112;2023-08-08T04:47:48;19.00;99.90
20546;DHT22;10431;50.228;9.112;2023-08-08T04:50:15;19.10;99.90
20546;DHT22;10431;50.228;9.112;2023-08-08T04:52:41;19.10;99.90
20546;DHT22;10431;50.228;9.112;2023-08-08T04:55:07;19.10;99.90
20546;DHT22;10431;50.228;9.112;2023-08-08T04:57:34;19.10;99.90
20546;DHT22;10431;50.228;9.112;2023-08-08T05:00:00;19.10;99.90
20546;DHT22;10431;50.228;9.112;2023-08-08T05:02:31;19.10;99.90
20546;DHT22;10431;50.228;9.112;2023-08-08T05:04:57;19.10;99.90
20546;DHT22;10431;50.228;9.112;2023-08-08T05:07:23;19.10;99.90
20546;DHT22;10431;50.228;9.112;2023-08-08T05:09:49;19.00;99.90
20546;DHT22;10431;50.228;9.112;2023-08-08T05:12:15;19.10;99.90
20546;DHT22;10431;50.228;9.112;2023-08-08T05:14:42;19.10;99.90
20546;DHT22;10431;50.228;9.112;2023-08-08T05:17:08;19.00;99.90
20546;DHT22;10431;50.228;9.112;2023-08-08T05:19:34;19.10;99.90
20546;DHT22;10431;50.228;9.112;2023-08-08T05:22:00;19.10;99.90
20546;DHT22;10431;50.228;9.112;2023-08-08T05:24:27;19.10;99.90
20546;DHT22;10431;50.228;9.112;2023-08-08T05:26:53;19.00;99.90
20546;DHT22;10431;50.228;9.112;2023-08-08T05:29:19;19.10;99.90
20546;DHT22;10431;50.228;9.112;2023-08-08T05:31:46;19.00;99.90
20546;DHT22;10431;50.228;9.112;2023-08-08T05:34:13;19.10;99.90
20546;DHT22;10431;50.228;9.112;2023-08-08T05:36:40;19.00;99.90
20546;DHT22;10431;50.228;9.112;2023-08-08T05:39:06;19.10;99.90
20546;DHT22;10431;50.228;9.112;2023-08-08T05:41:33;19.10;99.90
20546;DHT22;10431;50.228;9.112;2023-08-08T05:43:59;18.40;99.90
20546;DHT22;10431;50.228;9.112;2023-08-08T05:46:26;17.90;99.90
20546;DHT22;10431;50.228;9.112;2023-08-08T05:48:52;17.90;99.90
20546;DHT22;10431;50.228;9.112;2023-08-08T05:51:18;17.70;99.90
20546;DHT22;10431;50.228;9.112;2023-08-08T05:53:44;17.70;99.90
20546;DHT22;10431;50.228;9.112;2023-08-08T05:56:11;18.10;99.90
20546;DHT22;10431;50.228;9.112;2023-08-08T05:58:37;18.30;99.90
20546;DHT22;10431;50.228;9.112;2023-08-08T06:01:03;18.60;99.90
20546;DHT22;10431;50.228;9.112;2023-08-08T06:03:32;18.70;99.90
20546;DHT22;10431;50.228;9.112;2023-08-08T06:05:58;18.80;99.90
20546;DHT22;10431;50.228;9.112;2023-08-08T06:08:25;18.90;99.90
20546;DHT22;10431;50.228;9.112;2023-08-08T06:10:51;18.90;99.90
20546;DHT22;10431;50.228;9.112;2023-08-08T06:13:17;18.90;99.90
20546;DHT22;10431;50.228;9.112;2023-08-08T06:15:43;19.00;99.90
20546;DHT22;10431;50.228;9.112;2023-08-08T06:18:10;19.10;99.90
20546;DHT22;10431;50.228;9.112;2023-08-08T06:20:36;19.10;99.90
20546;DHT22;10431;50.228;9.112;2023-08-08T06:23:02;19.20;99.90
20546;DHT22;10431;50.228;9.112;2023-08-08T06:25:28;19.20;99.90
20546;DHT22;10431;50.228;9.112;2023-08-08T06:27:55;19.20;99.90
20546;DHT22;10431;50.228;9.112;2023-08-08T06:30:21;19.30;99.90
20546;DHT22;10431;50.228;9.112;2023-08-08T06:32:47;19.30;99.90
20546;DHT22;10431;50.228;9.112;2023-08-08T06:35:13;19.30;99.90
20546;DHT22;10431;50.228;9.112;2023-08-08T06:37:42;19.40;99.90
20546;DHT22;10431;50.228;9.112;2023-08-08T06:40:10;19.40;99.90
20546;DHT22;10431;50.228;9.112;2023-08-08T06:42:37;19.40;99.90
20546;DHT22;10431;50.228;9.112;2023-08-08T06:45:03;19.30;99.90
20546;DHT22;10431;50.228;9.112;2023-08-08T06:47:30;19.30;99.90
20546;DHT22;10431;50.228;9.112;2023-08-08T06:49:56;19.30;99.90
20546;DHT22;10431;50.228;9.112;2023-08-08T06:52:22;19.40;99.90
20546;DHT22;10431;50.228;9.112;2023-08-08T06:54:48;19.50;99.90
20546;DHT22;10431;50.228;9.112;2023-08-08T06:57:14;19.50;99.90
20546;DHT22;10431;50.228;9.112;2023-08-08T06:59:41;19.60;99.90
20546;DHT22;10431;50.228;9.112;2023-08-08T07:02:07;19.60;99.90
20546;DHT22;10431;50.228;9.112;2023-08-08T07:04:33;19.60;99.90
20546;DHT22;10431;50.228;9.112;2023-08-08T07:06:59;19.60;99.90
20546;DHT22;10431;50.228;9.112;2023-08-08T07:09:26;19.70;99.90
20546;DHT22;10431;50.228;9.112;2023-08-08T07:11:52;19.70;99.90
20546;DHT22;10431;50.228;9.112;2023-08-08T07:14:18;19.70;99.90
20546;DHT22;10431;50.228;9.112;2023-08-08T07:16:44;19.70;99.90
20546;DHT22;10431;50.228;9.112;2023-08-08T07:19:10;19.70;99.90
20546;DHT22;10431;50.228;9.112;2023-08-08T07:21:37;19.70;99.90
20546;DHT22;10431;50.228;9.112;2023-08-08T07:24:04;19.80;99.90
20546;DHT22;10431;50.228;9.112;2023-08-08T07:26:30;19.80;99.90
20546;DHT22;10431;50.228;9.112;2023-08-08T07:28:56;19.80;99.90
20546;DHT22;10431;50.228;9.112;2023-08-08T07:31:22;19.80;99.90
20546;DHT22;10431;50.228;9.112;2023-08-08T07:33:48;19.80;99.90
20546;DHT22;10431;50.228;9.112;2023-08-08T07:36:15;19.80;99.90
20546;DHT22;10431;50.228;9.112;2023-08-08T07:38:41;19.80;99.90
20546;DHT22;10431;50.228;9.112;2023-08-08T07:41:07;19.80;99.90
20546;DHT22;10431;50.228;9.112;2023-08-08T07:43:33;19.90;99.90
20546;DHT22;10431;50.228;9.112;2023-08-08T07:46:00;19.90;99.90
20546;DHT22;10431;50.228;9.112;2023-08-08T07:48:26;19.90;99.90
20546;DHT22;10431;50.228;9.112;2023-08-08T07:50:52;19.90;99.90
20546;DHT22;10431;50.228;9.112;2023-08-08T07:53:18;19.90;99.90
20546;DHT22;10431;50.228;9.112;2023-08-08T07:55:45;20.00;99.90
20546;DHT22;10431;50.228;9.112;2023-08-08T07:58:11;20.00;99.90
20546;DHT22;10431;50.228;9.112;2023-08-08T08:00:37;19.90;99.90
20546;DHT22;10431;50.228;9.112;2023-08-08T08:03:04;19.90;99.90
20546;DHT22;10431;50.228;9.112;2023-08-08T08:05:30;19.80;99.90
20546;DHT22;10431;50.228;9.112;2023-08-08T08:07:57;19.80;99.90
20546;DHT22;10431;50.228;9.112;2023-08-08T08:10:23;19.80;99.90
20546;DHT22;10431;50.228;9.112;2023-08-08T08:12:49;19.80;99.90
20546;DHT22;10431;50.228;9.112;2023-08-08T08:15:15;19.80;99.90
20546;DHT22;10431;50.228;9.112;2023-08-08T08:17:41;19.80;99.90
20546;DHT22;10431;50.228;9.112;2023-08-08T08:20:08;19.80;99.90
20546;DHT22;10431;50.228;9.112;2023-08-08T08:22:37;19.90;99.90
20546;DHT22;10431;50.228;9.112;2023-08-08T08:25:05;19.90;99.90
20546;DHT22;10431;50.228;9.112;2023-08-08T08:27:33;19.90;99.90
20546;DHT22;10431;50.228;9.112;2023-08-08T08:29:59;19.90;99.90
20546;DHT22;10431;50.228;9.112;2023-08-08T08:32:25;19.90;99.90
20546;DHT22;10431;50.228;9.112;2023-08-08T08:34:52;19.90;99.90
20546;DHT22;10431;50.228;9.112;2023-08-08T08:37:18;19.90;99.90
20546;DHT22;10431;50.228;9.112;2023-08-08T08:39:44;19.90;99.90
20546;DHT22;10431;50.228;9.112;2023-08-08T08:42:13;19.90;99.90
20546;DHT22;10431;50.228;9.112;2023-08-08T08:44:40;19.80;99.90
20546;DHT22;10431;50.228;9.112;2023-08-08T08:47:08;19.80;99.90
20546;DHT22;10431;50.228;9.112;2023-08-08T08:49:38;19.80;99.90
20546;DHT22;10431;50.228;9.112;2023-08-08T08:52:04;19.80;99.90
20546;DHT22;10431;50.228;9.112;2023-08-08T08:54:32;19.80;99.90
20546;DHT22;10431;50.228;9.112;2023-08-08T08:56:59;19.80;99.90
20546;DHT22;10431;50.228;9.112;2023-08-08T08:59:25;19.80;99.90
20546;DHT22;10431;50.228;9.112;2023-08-08T09:01:52;19.80;99.90
20546;DHT22;10431;50.228;9.112;2023-08-08T09:04:20;19.80;99.90
20546;DHT22;10431;50.228;9.112;2023-08-08T09:06:48;19.80;99.90
20546;DHT22;10431;50.228;9.112;2023-08-08T09:09:16;19.80;99.90
20546;DHT22;10431;50.228;9.112;2023-08-08T09:11:46;19.80;99.90
20546;DHT22;10431;50.228;9.112;2023-08-08T09:14:20;19.80;99.90
20546;DHT22;10431;50.228;9.112;2023-08-08T09:16:47;19.80;99.90
20546;DHT22;10431;50.228;9.112;2023-08-08T09:19:15;19.70;99.90
20546;DHT22;10431;50.228;9.112;2023-08-08T09:21:41;19.70;99.90
20546;DHT22;10431;50.228;9.112;2023-08-08T09:24:07;19.70;99.90
20546;DHT22;10431;50.228;9.112;2023-08-08T09:26:34;19.70;99.90
20546;DHT22;10431;50.228;9.112;2023-08-08T09:29:01;19.70;99.90
20546;DHT22;10431;50.228;9.112;2023-08-08T09:31:28;19.70;99.90
20546;DHT22;10431;50.228;9.112;2023-08-08T09:33:57;19.70;99.90
20546;DHT22;10431;50.228;9.112;2023-08-08T09:36:24;19.70;99.90
20546;DHT22;10431;50.228;9.112;2023-08-08T09:38:55;19.70;99.90
20546;DHT22;10431;50.228;9.112;2023-08-08T09:41:22;19.70;99.90
20546;DHT22;10431;50.228;9.112;2023-08-08T09:43:50;19.70;99.90
20546;DHT22;10431;50.228;9.112;2023-08-08T09:46:18;19.70;99.90
20546;DHT22;10431;50.228;9.112;2023-08-08T09:48:45;19.80;99.90
20546;DHT22;10431;50.228;9.112;2023-08-08T09:51:11;19.80;99.90
20546;DHT22;10431;50.228;9.112;2023-08-08T09:53:39;19.80;99.90
20546;DHT22;10431;50.228;9.112;2023-08-08T09:56:06;19.80;99.90
20546;DHT22;10431;50.228;9.112;2023-08-08T09:58:33;19.80;99.90
20546;DHT22;10431;50.228;9.112;2023-08-08T10:01:00;19.80;99.90
20546;DHT22;10431;50.228;9.112;2023-08-08T10:03:26;19.80;99.90
20546;DHT22;10431;50.228;9.112;2023-08-08T10:05:52;19.80;99.90
20546;DHT22;10431;50.228;9.112;2023-08-08T10:08:19;19.80;99.90
20546;DHT22;10431;50.228;9.112;2023-08-08T10:10:48;19.80;99.90
20546;DHT22;10431;50.228;9.112;2023-08-08T10:13:25;19.80;99.90
20546;DHT22;10431;50.228;9.112;2023-08-08T10:15:52;19.80;99.90
20546;DHT22;10431;50.228;9.112;2023-08-08T10:18:21;19.80;99.90
20546;DHT22;10431;50.228;9.112;2023-08-08T10:20:49;19.80;99.90
20546;DHT22;10431;50.228;9.112;2023-08-08T10:23:17;19.80;99.90
20546;DHT22;10431;50.228;9.112;2023-08-08T10:25:48;19.90;99.90
20546;DHT22;10431;50.228;9.112;2023-08-08T10:28:20;19.80;99.90
20546;DHT22;10431;50.228;9.112;2023-08-08T10:30:52;19.80;99.90
20546;DHT22;10431;50.228;9.112;2023-08-08T10:33:42;19.90;99.90
20546;DHT22;10431;50.228;9.112;2023-08-08T10:36:11;19.90;99.90
20546;DHT22;10431;50.228;9.112;2023-08-08T10:38:47;19.80;99.90
20546;DHT22;10431;50.228;9.112;2023-08-08T10:41:18;19.90;99.90
20546;DHT22;10431;50.228;9.112;2023-08-08T10:46:29;19.90;99.90
20546;DHT22;10431;50.228;9.112;2023-08-08T10:49:00;19.90;99.90
20546;DHT22;10431;50.228;9.112;2023-08-08T10:51:40;19.80;99.90
20546;DHT22;10431;50.228;9.112;2023-08-08T10:54:25;19.80;99.90
20546;DHT22;10431;50.228;9.112;2023-08-08T10:56:59;19.90;99.90
20546;DHT22;10431;50.228;9.112;2023-08-08T10:59:35;19.90;99.90
20546;DHT22;10431;50.228;9.112;2023-08-08T11:02:02;19.90;99.90
20546;DHT22;10431;50.228;9.112;2023-08-08T11:04:29;19.90;99.90
20546;DHT22;10431;50.228;9.112;2023-08-08T11:06:56;19.90;99.90
20546;DHT22;10431;50.228;9.112;2023-08-08T11:09:23;19.90;99.90
20546;DHT22;10431;50.228;9.112;2023-08-08T11:11:49;19.90;99.90
20546;DHT22;10431;50.228;9.112;2023-08-08T11:14:18;19.90;99.90
20546;DHT22;10431;50.228;9.112;2023-08-08T11:16:46;19.90;99.90
20546;DHT22;10431;50.228;9.112;2023-08-08T11:19:13;19.80;99.90
20546;DHT22;10431;50.228;9.112;2023-08-08T11:21:44;19.80;99.90
20546;DHT22;10431;50.228;9.112;2023-08-08T11:24:11;19.80;99.90
20546;DHT22;10431;50.228;9.112;2023-08-08T11:26:40;19.80;99.90
20546;DHT22;10431;50.228;9.112;2023-08-08T11:29:06;19.80;99.90
20546;DHT22;10431;50.228;9.112;2023-08-08T11:31:35;19.80;99.90
20546;DHT22;10431;50.228;9.112;2023-08-08T11:34:02;19.80;99.90
20546;DHT22;10431;50.228;9.112;2023-08-08T11:36:30;19.80;99.90
20546;DHT22;10431;50.228;9.112;2023-08-08T11:38:57;19.80;99.90
20546;DHT22;10431;50.228;9.112;2023-08-08T11:41:24;19.80;99.90
20546;DHT22;10431;50.228;9.112;2023-08-08T11:43:52;19.80;99.90
20546;DHT22;10431;50.228;9.112;2023-08-08T11:46:23;19.80;99.90
20546;DHT22;10431;50.228;9.112;2023-08-08T11:48:50;19.80;99.90
20546;DHT22;10431;50.228;9.112;2023-08-08T11:51:16;19.80;99.90
20546;DHT22;10431;50.228;9.112;2023-08-08T11:53:51;19.80;99.90
20546;DHT22;10431;50.228;9.112;2023-08-08T11:56:19;19.90;99.90
20546;DHT22;10431;50.228;9.112;2023-08-08T11:58:51;19.90;99.90
20546;DHT22;10431;50.228;9.112;2023-08-08T12:01:22;19.90;99.90
20546;DHT22;10431;50.228;9.112;2023-08-08T12:03:49;19.80;99.90
20546;DHT22;10431;50.228;9.112;2023-08-08T12:06:16;19.80;99.90
20546;DHT22;10431;50.228;9.112;2023-08-08T12:08:44;19.80;99.90
20546;DHT22;10431;50.228;9.112;2023-08-08T12:11:11;19.80;99.90
20546;DHT22;10431;50.228;9.112;2023-08-08T12:13:40;19.80;99.90
20546;DHT22;10431;50.228;9.112;2023-08-08T12:16:12;19.80;99.90
20546;DHT22;10431;50.228;9.112;2023-08-08T12:18:39;19.80;99.90
20546;DHT22;10431;50.228;9.112;2023-08-08T12:21:07;19.80;99.90
20546;DHT22;10431;50.228;9.112;2023-08-08T12:23:35;19.80;99.90
20546;DHT22;10431;50.228;9.112;2023-08-08T12:26:05;19.90;99.90
20546;DHT22;10431;50.228;9.112;2023-08-08T12:28:32;19.90;99.90
20546;DHT22;10431;50.228;9.112;2023-08-08T12:30:59;19.90;99.90
20546;DHT22;10431;50.228;9.112;2023-08-08T12:33:25;19.90;99.90
20546;DHT22;10431;50.228;9.112;2023-08-08T12:35:52;19.90;99.90
20546;DHT22;10431;50.228;9.112;2023-08-08T12:38:18;19.90;99.90
20546;DHT22;10431;50.228;9.112;2023-08-08T12:40:45;19.90;99.90
20546;DHT22;10431;50.228;9.112;2023-08-08T12:43:11;19.80;99.90
20546;DHT22;10431;50.228;9.112;2023-08-08T12:45:44;19.80;99.90
20546;DHT22;10431;50.228;9.112;2023-08-08T12:48:12;19.80;99.90
20546;DHT22;10431;50.228;9.112;2023-08-08T12:50:38;19.80;99.90
20546;DHT22;10431;50.228;9.112;2023-08-08T12:53:04;19.80;99.90
20546;DHT22;10431;50.228;9.112;2023-08-08T12:55:30;19.80;99.90
20546;DHT22;10431;50.228;9.112;2023-08-08T12:57:57;19.80;99.90
20546;DHT22;10431;50.228;9.112;2023-08-08T13:00:23;19.80;99.90
20546;DHT22;10431;50.228;9.112;2023-08-08T13:02:49;19.80;99.90
20546;DHT22;10431;50.228;9.112;2023-08-08T13:05:15;19.80;99.90
20546;DHT22;10431;50.228;9.112;2023-08-08T13:07:42;19.80;99.90
20546;DHT22;10431;50.228;9.112;2023-08-08T13:10:08;19.80;99.90
20546;DHT22;10431;50.228;9.112;2023-08-08T13:12:36;19.80;99.90
20546;DHT22;10431;50.228;9.112;2023-08-08T13:15:03;19.80;99.90
20546;DHT22;10431;50.228;9.112;2023-08-08T13:17:29;19.80;99.90
20546;DHT22;10431;50.228;9.112;2023-08-08T13:19:55;19.90;99.90
20546;DHT22;10431;50.228;9.112;2023-08-08T13:22:22;19.90;99.90
20546;DHT22;10431;50.228;9.112;2023-08-08T13:24:48;19.90;99.90
20546;DHT22;10431;50.228;9.112;2023-08-08T13:27:14;19.90;99.90
20546;DHT22;10431;50.228;9.112;2023-08-08T13:29:40;19.90;99.90
20546;DHT22;10431;50.228;9.112;2023-08-08T13:32:06;19.90;99.90
20546;DHT22;10431;50.228;9.112;2023-08-08T13:34:32;19.90;99.90
20546;DHT22;10431;50.228;9.112;2023-08-08T13:36:59;19.80;99.90
20546;DHT22;10431;50.228;9.112;2023-08-08T13:39:25;19.80;99.90
20546;DHT22;10431;50.228;9.112;2023-08-08T13:41:51;19.80;99.90
20546;DHT22;10431;50.228;9.112;2023-08-08T13:44:17;19.80;99.90
20546;DHT22;10431;50.228;9.112;2023-08-08T13:46:44;19.80;99.90
20546;DHT22;10431;50.228;9.112;2023-08-08T13:49:10;19.80;99.90
20546;DHT22;10431;50.228;9.112;2023-08-08T13:51:36;19.80;99.90
20546;DHT22;10431;50.228;9.112;2023-08-08T13:54:02;19.80;99.90
20546;DHT22;10431;50.228;9.112;2023-08-08T13:56:29;19.70;99.90
20546;DHT22;10431;50.228;9.112;2023-08-08T13:58:55;19.70;99.90
20546;DHT22;10431;50.228;9.112;2023-08-08T14:01:21;19.70;99.90
20546;DHT22;10431;50.228;9.112;2023-08-08T14:03:47;19.80;99.90
20546;DHT22;10431;50.228;9.112;2023-08-08T14:06:14;19.70;99.90
20546;DHT22;10431;50.228;9.112;2023-08-08T14:08:40;19.70;99.90
20546;DHT22;10431;50.228;9.112;2023-08-08T14:11:06;19.70;99.90
20546;DHT22;10431;50.228;9.112;2023-08-08T14:13:33;19.70;99.90
20546;DHT22;10431;50.228;9.112;2023-08-08T14:16:00;19.70;99.90
20546;DHT22;10431;50.228;9.112;2023-08-08T14:18:26;19.70;99.90
20546;DHT22;10431;50.228;9.112;2023-08-08T14:20:52;19.80;99.90
20546;DHT22;10431;50.228;9.112;2023-08-08T14:23:19;19.80;99.90
20546;DHT22;10431;50.228;9.112;2023-08-08T14:25:45;19.80;99.90
20546;DHT22;10431;50.228;9.112;2023-08-08T14:28:12;19.80;99.90
20546;DHT22;10431;50.228;9.112;2023-08-08T14:30:40;19.70;99.90
20546;DHT22;10431;50.228;9.112;2023-08-08T14:33:06;19.70;99.90
20546;DHT22;10431;50.228;9.112;2023-08-08T14:35:33;19.70;99.90
20546;DHT22;10431;50.228;9.112;2023-08-08T14:38:00;19.70;99.90
20546;DHT22;10431;50.228;9.112;2023-08-08T14:40:26;19.70;99.90
20546;DHT22;10431;50.228;9.112;2023-08-08T14:42:52;19.70;99.90
20546;DHT22;10431;50.228;9.112;2023-08-08T14:45:18;19.70;99.90
20546;DHT22;10431;50.228;9.112;2023-08-08T14:47:46;19.70;99.90
20546;DHT22;10431;50.228;9.112;2023-08-08T14:50:12;19.70;99.90
20546;DHT22;10431;50.228;9.112;2023-08-08T14:52:39;19.70;99.90
20546;DHT22;10431;50.228;9.112;2023-08-08T14:55:05;19.70;99.90
20546;DHT22;10431;50.228;9.112;2023-08-08T14:57:32;19.70;99.90
20546;DHT22;10431;50.228;9.112;2023-08-08T14:59:59;19.70;99.90
20546;DHT22;10431;50.228;9.112;2023-08-08T15:02:26;19.70;99.90
20546;DHT22;10431;50.228;9.112;2023-08-08T15:04:52;19.70;99.90
20546;DHT22;10431;50.228;9.112;2023-08-08T15:07:19;19.70;99.90
20546;DHT22;10431;50.228;9.112;2023-08-08T15:09:45;19.70;99.90
20546;DHT22;10431;50.228;9.112;2023-08-08T15:12:16;19.70;99.90
20546;DHT22;10431;50.228;9.112;2023-08-08T15:14:42;19.70;99.90
20546;DHT22;10431;50.228;9.112;2023-08-08T15:17:08;19.70;99.90
20546;DHT22;10431;50.228;9.112;2023-08-08T15:19:34;19.70;99.90
20546;DHT22;10431;50.228;9.112;2023-08-08T15:22:01;19.70;99.90
20546;DHT22;10431;50.228;9.112;2023-08-08T15:24:27;19.70;99.90
20546;DHT22;10431;50.228;9.112;2023-08-08T15:26:53;19.70;99.90
20546;DHT22;10431;50.228;9.112;2023-08-08T15:29:19;19.70;99.90
20546;DHT22;10431;50.228;9.112;2023-08-08T15:31:45;19.70;99.90
20546;DHT22;10431;50.228;9.112;2023-08-08T15:34:12;19.70;99.90
20546;DHT22;10431;50.228;9.112;2023-08-08T15:36:38;19.60;99.90
20546;DHT22;10431;50.228;9.112;2023-08-08T15:39:04;19.60;99.90